Aérodrome :
LOGIN :

S'inscrire | Disclaimer

   EN    FR    IT 

 










Légende :    VFR   VFR Marginal   IFR   IFR Intensif   IFR Très Intensif
Visi : 
Plafond : 
>= 8 km
>= 3000ft
5 à 8 km
1000 à 3000 ft
1500m à 5 km
500 à 1000 ft
800 à 1500m
200 à 500 ft
< 800m
< 200 ft
Symboles :   Orages  Brouillard  Fortes neiges  Fortes précipitations  Vent > 20 kt
SIGMETs :   Divers  Orages  Givrage  Turbulence  Onde Orograph.  Cendres Volcan.






- Altitude de l'aérodrome : 2945 ft
- Code IATA : RGS


LEBG - Burgos

DERNIER METAR :
  • 090500Z 08007KT 9999 SCT045 17/13 Q1020

METARs EXPIRÉS :
  • 090430Z AUTO 03003KT CAVOK 15/13 Q1019
  • 090400Z AUTO 04008KT CAVOK 14/12 Q1019
  • 090330Z AUTO 03008KT CAVOK 15/12 Q1019
  • 090300Z AUTO 02005KT CAVOK 15/12 Q1019

TAF TAF LEBG
Valide du 09 à 06h jusqu'au 09 à 15h UTC


090500Z 0906/0915 06010KT 9999 SCT045
TEMPO 0906/0915 FEW040TCU
PROB40
TEMPO 0906/0915 SHRA FEW040TCU
PROB30
TEMPO 0906/0910 VRB15G25KT TSRA FEW045CB
PROB40
TEMPO 0912/0915 VRB15G35KT TSRA FEW045CB



MET'MAP, la Météo Aéronautique d'un coup d'oeil ! - Copyright ORBIFLY Décembre 2007 - Disclaimer

ORBIFLY MET'MAP TEAM :

Programmation & Développement : Alexandra Zaïnal
Sur une idée originale de : Baudouin d'Aumeries
Assistance à la programmation : Marc-Olivier Méhu
Soutien technique & logistique : Manuel Goepfert

Contact : metmap@orbifly.com




SOURCES & CREDITS :

   NOAA